Time;durP1;ratioP1;P1;durP2;ratioP2;P2;SDS_P1;SDS_P2;PMS_P1;PMS_P2;Temp;Humidity;BMP_temperature;BMP_pressure;BME280_temperature;BME280_humidity;BME280_pressure;Samples;Min_cycle;Max_cycle;Signal;HPM_P1;HPM_P2
2022/03/18 00:00:33;;;;;;;40.77;26.83;;;;;;;;;;5114551;28;20450;-70
2022/03/18 00:03:01;;;;;;;52.60;26.20;;;;;;;;;;5114502;28;20544;-70
2022/03/18 00:05:28;;;;;;;47.00;27.20;;;;;;;;;;5113776;28;20457;-70
2022/03/18 00:07:55;;;;;;;58.47;30.90;;;;;;;;;;5114253;28;20476;-70
2022/03/18 00:10:23;;;;;;;45.27;28.10;;;;;;;;;;5114363;28;20446;-70
2022/03/18 00:12:52;;;;;;;54.00;28.07;;;;;;;;;;5114194;28;20572;-70
2022/03/18 00:15:19;;;;;;;59.40;30.53;;;;;;;;;;5114110;28;20815;-70
2022/03/18 00:17:46;;;;;;;51.37;27.83;;;;;;;;;;5114069;28;20469;-70
2022/03/18 00:20:15;;;;;;;53.07;28.57;;;;;;;;;;5114257;28;20457;-70
2022/03/18 00:22:43;;;;;;;45.53;28.53;;;;;;;;;;5114055;28;20441;-70
2022/03/18 00:25:10;;;;;;;68.23;38.40;;;;;;;;;;5113830;28;20480;-70
2022/03/18 00:27:38;;;;;;;102.27;53.03;;;;;;;;;;5113883;28;20481;-70
2022/03/18 00:30:06;;;;;;;145.37;56.47;;;;;;;;;;5114148;28;20477;-69
2022/03/18 00:32:33;;;;;;;101.73;50.43;;;;;;;;;;5114009;28;20449;-70
2022/03/18 00:35:00;;;;;;;99.90;47.90;;;;;;;;;;5113180;28;20453;-69
2022/03/18 00:37:29;;;;;;;91.93;47.07;;;;;;;;;;5113903;28;20837;-69
2022/03/18 00:39:56;;;;;;;74.90;41.73;;;;;;;;;;5113889;28;20441;-70
2022/03/18 00:42:23;;;;;;;76.90;39.47;;;;;;;;;;5113922;28;20973;-70
2022/03/18 00:44:50;;;;;;;59.63;32.43;;;;;;;;;;5112979;28;20809;-70
2022/03/18 00:52:48;;;;;;;50.77;30.23;;;;;;;;;;5113686;28;20778;-70
2022/03/18 00:55:15;;;;;;;43.03;28.23;;;;;;;;;;5113435;28;20457;-69
2022/03/18 00:57:42;;;;;;;40.93;26.43;;;;;;;;;;5113631;28;20473;-70
2022/03/18 01:00:10;;;;;;;44.47;26.60;;;;;;;;;;5113562;28;20793;-69
2022/03/18 01:02:37;;;;;;;51.00;28.90;;;;;;;;;;5113575;28;20449;-70
2022/03/18 01:05:04;;;;;;;47.60;30.30;;;;;;;;;;5113261;28;20457;-70
2022/03/18 01:07:31;;;;;;;46.07;25.87;;;;;;;;;;5112951;28;20970;-70
2022/03/18 01:10:00;;;;;;;41.17;23.37;;;;;;;;;;5113391;28;20449;-70
2022/03/18 01:12:27;;;;;;;40.23;24.90;;;;;;;;;;5113504;28;20819;-70
2022/03/18 01:14:54;;;;;;;42.50;25.77;;;;;;;;;;5113195;28;20453;-70
2022/03/18 01:17:21;;;;;;;45.10;23.50;;;;;;;;;;5113425;28;20468;-70
2022/03/18 01:19:48;;;;;;;49.40;26.80;;;;;;;;;;5113377;28;20448;-70
2022/03/18 01:22:15;;;;;;;42.43;24.63;;;;;;;;;;5113733;28;20852;-70
2022/03/18 01:24:43;;;;;;;41.93;22.47;;;;;;;;;;5113260;28;20453;-70
2022/03/18 01:27:11;;;;;;;39.27;22.07;;;;;;;;;;5113178;28;20488;-70
2022/03/18 01:29:38;;;;;;;31.47;21.07;;;;;;;;;;5113331;28;20965;-70
2022/03/18 01:32:06;;;;;;;35.63;20.63;;;;;;;;;;5113163;28;20464;-70
2022/03/18 01:34:34;;;;;;;40.60;26.00;;;;;;;;;;5112779;28;21014;-70
2022/03/18 01:37:01;;;;;;;31.97;19.40;;;;;;;;;;5113261;28;20811;-70
2022/03/18 01:39:28;;;;;;;39.83;21.73;;;;;;;;;;5113221;28;20498;-70
2022/03/18 01:41:55;;;;;;;34.60;19.90;;;;;;;;;;5113457;28;20461;-70
2022/03/18 01:44:24;;;;;;;35.63;19.33;;;;;;;;;;5112983;28;20442;-70
2022/03/18 01:46:51;;;;;;;32.20;20.13;;;;;;;;;;5112941;28;20512;-70
2022/03/18 01:49:18;;;;;;;30.23;20.33;;;;;;;;;;5113082;28;20457;-70
2022/03/18 01:51:45;;;;;;;36.30;20.50;;;;;;;;;;5113223;28;20449;-70
2022/03/18 01:56:57;;;;;;;31.30;18.53;;;;;;;;;;5117016;28;20436;-70
2022/03/18 01:59:26;;;;;;;32.37;21.37;;;;;;;;;;5117053;28;20449;-70
2022/03/18 02:01:53;;;;;;;36.53;23.20;;;;;;;;;;5116884;28;20452;-70
2022/03/18 02:04:20;;;;;;;40.80;24.17;;;;;;;;;;5116699;28;20461;-70
2022/03/18 02:06:47;;;;;;;33.50;21.03;;;;;;;;;;5116669;28;20846;-70
2022/03/18 02:09:15;;;;;;;34.43;21.50;;;;;;;;;;5116853;28;20452;-70
2022/03/18 02:11:42;;;;;;;36.17;23.00;;;;;;;;;;5116873;28;20445;-70
2022/03/18 02:14:09;;;;;;;42.57;23.40;;;;;;;;;;5116254;28;20461;-70
2022/03/18 02:16:39;;;;;;;41.13;24.87;;;;;;;;;;5116652;28;20815;-70
2022/03/18 02:19:07;;;;;;;39.93;24.50;;;;;;;;;;5116656;28;20469;-70
2022/03/18 02:21:36;;;;;;;34.50;22.27;;;;;;;;;;5116695;28;20458;-69
2022/03/18 02:24:05;;;;;;;43.23;24.63;;;;;;;;;;5116266;28;20847;-70
2022/03/18 02:26:32;;;;;;;51.43;22.80;;;;;;;;;;5116505;28;20481;-70
2022/03/18 02:29:00;;;;;;;36.80;22.73;;;;;;;;;;5116095;28;20498;-70
2022/03/18 02:31:30;;;;;;;36.97;22.90;;;;;;;;;;5116353;28;20489;-70
2022/03/18 02:33:57;;;;;;;40.90;22.73;;;;;;;;;;5116026;28;20995;-70
2022/03/18 02:36:24;;;;;;;40.20;24.13;;;;;;;;;;5115956;28;20441;-70
2022/03/18 02:38:51;;;;;;;41.50;23.30;;;;;;;;;;5116045;28;20989;-70
2022/03/18 02:41:20;;;;;;;38.50;21.93;;;;;;;;;;5116255;28;20454;-69
2022/03/18 02:43:47;;;;;;;38.67;22.87;;;;;;;;;;5116134;28;20672;-70
2022/03/18 02:46:15;;;;;;;43.53;24.97;;;;;;;;;;5116117;28;20449;-70
2022/03/18 02:48:42;;;;;;;51.00;27.23;;;;;;;;;;5115808;28;20565;-70
2022/03/18 02:51:09;;;;;;;40.43;25.27;;;;;;;;;;5116000;28;20953;-70
2022/03/18 02:53:36;;;;;;;38.70;23.23;;;;;;;;;;5115722;28;20453;-70
2022/03/18 02:56:04;;;;;;;39.37;23.37;;;;;;;;;;5115729;28;20449;-70
2022/03/18 02:58:34;;;;;;;42.43;25.20;;;;;;;;;;5115908;28;20982;-69
2022/03/18 03:01:01;;;;;;;46.90;24.73;;;;;;;;;;5115894;28;20485;-69
2022/03/18 03:03:28;;;;;;;35.23;24.23;;;;;;;;;;5115674;28;20445;-70
2022/03/18 03:08:40;;;;;;;41.03;23.97;;;;;;;;;;5115623;28;20990;-70
2022/03/18 03:11:08;;;;;;;38.47;24.20;;;;;;;;;;5115695;28;20434;-70
2022/03/18 03:13:37;;;;;;;45.23;25.57;;;;;;;;;;5115329;28;20822;-70
2022/03/18 03:16:04;;;;;;;45.37;25.83;;;;;;;;;;5115385;28;20485;-70
2022/03/18 03:18:31;;;;;;;46.20;25.23;;;;;;;;;;5115340;28;20449;-70
2022/03/18 03:20:58;;;;;;;43.00;24.80;;;;;;;;;;5115184;28;20449;-70
2022/03/18 03:23:25;;;;;;;42.80;22.57;;;;;;;;;;5115419;28;20445;-70
2022/03/18 03:25:53;;;;;;;41.20;24.13;;;;;;;;;;5115280;28;20442;-69
2022/03/18 03:28:20;;;;;;;50.20;24.90;;;;;;;;;;5115032;28;20776;-70
2022/03/18 03:30:49;;;;;;;40.10;23.63;;;;;;;;;;5115384;28;20455;-70
2022/03/18 03:33:16;;;;;;;38.03;24.07;;;;;;;;;;5114941;28;20951;-70
2022/03/18 03:35:43;;;;;;;41.63;23.63;;;;;;;;;;5114546;28;20442;-70
2022/03/18 03:38:13;;;;;;;36.13;23.67;;;;;;;;;;5114854;28;20466;-69
2022/03/18 03:40:41;;;;;;;39.00;23.70;;;;;;;;;;5115049;28;20489;-69
2022/03/18 03:43:09;;;;;;;43.87;27.07;;;;;;;;;;5114839;28;20968;-69
2022/03/18 03:45:36;;;;;;;44.23;24.63;;;;;;;;;;5114448;28;20449;-69
2022/03/18 03:48:05;;;;;;;39.67;24.80;;;;;;;;;;5114351;27;20497;-69
2022/03/18 03:50:33;;;;;;;38.23;24.57;;;;;;;;;;5114912;28;20452;-69
2022/03/18 03:53:00;;;;;;;38.83;23.17;;;;;;;;;;5114440;28;20446;-69
2022/03/18 03:55:27;;;;;;;41.80;22.83;;;;;;;;;;5114399;27;20449;-69
2022/03/18 03:57:54;;;;;;;42.03;21.50;;;;;;;;;;5114347;28;20472;-70
2022/03/18 04:00:21;;;;;;;38.97;23.10;;;;;;;;;;5114590;28;20445;-70
2022/03/18 04:02:49;;;;;;;36.80;20.93;;;;;;;;;;5114486;28;20446;-70
2022/03/18 04:05:17;;;;;;;40.80;21.47;;;;;;;;;;5114131;28;20957;-69
2022/03/18 04:07:45;;;;;;;37.40;20.83;;;;;;;;;;5114445;28;20489;-71
2022/03/18 04:10:13;;;;;;;36.03;20.53;;;;;;;;;;5114267;28;20438;-69
2022/03/18 04:12:40;;;;;;;33.60;20.13;;;;;;;;;;5114343;28;20453;-70
2022/03/18 04:15:09;;;;;;;37.93;20.40;;;;;;;;;;5113897;28;20449;-70
2022/03/18 04:17:40;;;;;;;37.20;21.03;;;;;;;;;;5113762;28;20461;-69
2022/03/18 04:20:09;;;;;;;37.60;22.37;;;;;;;;;;5113712;28;20833;-69
2022/03/18 04:22:37;;;;;;;36.97;22.33;;;;;;;;;;5114242;28;20803;-69
2022/03/18 04:25:04;;;;;;;39.07;22.30;;;;;;;;;;5113890;28;20449;-69
2022/03/18 04:27:31;;;;;;;41.53;21.03;;;;;;;;;;5113924;28;20493;-71
2022/03/18 04:29:58;;;;;;;32.10;21.10;;;;;;;;;;5113862;28;20457;-70
2022/03/18 04:32:25;;;;;;;31.90;19.90;;;;;;;;;;5114050;28;20453;-69
2022/03/18 04:34:53;;;;;;;40.43;22.60;;;;;;;;;;5113059;28;20446;-70
2022/03/18 04:37:20;;;;;;;34.23;21.87;;;;;;;;;;5113912;28;20470;-70
2022/03/18 04:39:48;;;;;;;39.07;21.97;;;;;;;;;;5113741;28;20450;-70
2022/03/18 04:42:15;;;;;;;31.40;20.13;;;;;;;;;;5113751;28;20790;-70
2022/03/18 04:44:42;;;;;;;35.23;20.20;;;;;;;;;;5113517;28;20449;-69
2022/03/18 04:47:09;;;;;;;31.80;20.13;;;;;;;;;;5113528;28;20493;-69
2022/03/18 04:49:37;;;;;;;32.83;21.40;;;;;;;;;;5113552;28;20832;-69
2022/03/18 04:52:04;;;;;;;31.73;20.03;;;;;;;;;;5113577;28;20807;-69
2022/03/18 04:54:31;;;;;;;36.10;19.83;;;;;;;;;;5113582;28;20450;-69
2022/03/18 04:57:18;;;;;;;48.03;23.13;;;;;;;;;;5113429;28;20441;-69
2022/03/18 04:59:46;;;;;;;36.80;20.57;;;;;;;;;;5113443;28;20465;-69
2022/03/18 05:02:14;;;;;;;33.83;18.83;;;;;;;;;;5113485;28;20468;-69
2022/03/18 05:04:42;;;;;;;36.93;22.40;;;;;;;;;;5113295;28;20556;-69
2022/03/18 05:07:11;;;;;;;32.47;20.03;;;;;;;;;;5113234;28;20485;-70
2022/03/18 05:09:39;;;;;;;36.93;22.63;;;;;;;;;;5113363;28;20453;-70
2022/03/18 05:12:08;;;;;;;36.50;20.40;;;;;;;;;;5113492;28;20832;-70
2022/03/18 05:14:35;;;;;;;31.93;19.13;;;;;;;;;;5113234;28;20448;-69
2022/03/18 05:17:02;;;;;;;38.23;19.97;;;;;;;;;;5113027;28;20456;-69
2022/03/18 05:19:30;;;;;;;33.37;20.63;;;;;;;;;;5113262;28;20498;-70
2022/03/18 05:21:57;;;;;;;38.30;22.60;;;;;;;;;;5113068;28;20457;-69
2022/03/18 05:24:26;;;;;;;33.03;21.07;;;;;;;;;;5113095;28;20453;-70
2022/03/18 05:26:53;;;;;;;37.50;21.77;;;;;;;;;;5113024;28;20457;-70
2022/03/18 05:29:21;;;;;;;35.73;19.47;;;;;;;;;;5113748;28;20481;-69
2022/03/18 05:31:48;;;;;;;41.33;19.37;;;;;;;;;;5117368;28;20441;-70
2022/03/18 05:34:16;;;;;;;31.77;18.77;;;;;;;;;;5116624;28;20953;-70
2022/03/18 05:36:43;;;;;;;34.63;20.90;;;;;;;;;;5117313;27;20863;-69
2022/03/18 05:39:11;;;;;;;61.77;35.57;;;;;;;;;;5117194;28;20462;-69
2022/03/18 05:41:38;;;;;;;35.47;22.77;;;;;;;;;;5117347;28;20441;-69
2022/03/18 05:44:06;;;;;;;39.10;22.07;;;;;;;;;;5117186;28;20458;-69
2022/03/18 05:46:34;;;;;;;30.37;19.87;;;;;;;;;;5117377;28;20442;-69
2022/03/18 05:49:01;;;;;;;56.17;22.93;;;;;;;;;;5116784;28;20494;-69
2022/03/18 05:51:28;;;;;;;33.00;19.93;;;;;;;;;;5117166;28;20481;-69
2022/03/18 05:53:55;;;;;;;32.30;19.60;;;;;;;;;;5110499;28;20451;-69
2022/03/18 05:59:07;;;;;;;38.10;22.47;;;;;;;;;;5101914;28;20584;-69
2022/03/18 06:01:38;;;;;;;44.37;25.03;;;;;;;;;;5096401;28;20447;-69
2022/03/18 06:04:05;;;;;;;37.77;20.90;;;;;;;;;;5096263;28;20823;-69
2022/03/18 06:06:32;;;;;;;43.10;22.27;;;;;;;;;;5096506;28;20451;-69
2022/03/18 06:11:51;;;;;;;38.77;23.30;;;;;;;;;;5096383;28;20421;-70
2022/03/18 06:14:19;;;;;;;38.23;23.10;;;;;;;;;;5096302;28;20454;-69
2022/03/18 06:16:48;;;;;;;46.87;23.07;;;;;;;;;;5096230;28;20478;-70
2022/03/18 06:19:15;;;;;;;37.07;22.73;;;;;;;;;;5096225;28;20474;-69
2022/03/18 06:21:43;;;;;;;34.00;21.80;;;;;;;;;;5096302;28;20447;-69
2022/03/18 06:24:10;;;;;;;37.40;21.60;;;;;;;;;;5095830;28;20507;-70
2022/03/18 06:26:37;;;;;;;44.53;23.77;;;;;;;;;;5096009;28;20823;-70
2022/03/18 06:29:05;;;;;;;38.73;21.83;;;;;;;;;;5095796;28;20994;-69
2022/03/18 06:31:32;;;;;;;48.13;23.70;;;;;;;;;;5095972;28;20454;-69
2022/03/18 06:34:01;;;;;;;40.23;24.30;;;;;;;;;;5095579;28;20959;-71
2022/03/18 06:36:28;;;;;;;35.50;22.00;;;;;;;;;;5095942;28;20831;-70
2022/03/18 06:38:55;;;;;;;32.63;20.50;;;;;;;;;;5095604;28;20483;-71
2022/03/18 06:41:22;;;;;;;37.63;22.90;;;;;;;;;;5094823;28;20466;-69
2022/03/18 06:43:49;;;;;;;41.37;22.57;;;;;;;;;;5095569;28;20504;-69
2022/03/18 06:46:17;;;;;;;34.10;21.53;;;;;;;;;;5108842;28;20461;-70
2022/03/18 06:48:44;;;;;;;35.10;20.13;;;;;;;;;;5114336;28;20489;-70
2022/03/18 06:51:13;;;;;;;37.57;21.30;;;;;;;;;;5114383;27;20531;-70
2022/03/18 06:53:40;;;;;;;32.70;22.53;;;;;;;;;;5114126;27;20450;-70
2022/03/18 06:56:07;;;;;;;36.57;23.50;;;;;;;;;;5114287;28;20970;-71
2022/03/18 06:58:34;;;;;;;44.40;24.30;;;;;;;;;;5114417;28;20464;-70
2022/03/18 07:01:02;;;;;;;31.43;20.57;;;;;;;;;;5114102;28;20450;-70
2022/03/18 07:03:29;;;;;;;43.80;21.23;;;;;;;;;;5108829;28;20450;-69
2022/03/18 07:05:56;;;;;;;37.23;22.07;;;;;;;;;;5093845;28;20458;-70
2022/03/18 07:08:25;;;;;;;35.53;20.93;;;;;;;;;;5093614;28;20868;-70
2022/03/18 07:10:52;;;;;;;32.10;21.13;;;;;;;;;;5093724;28;20451;-70
2022/03/18 07:13:19;;;;;;;38.37;21.73;;;;;;;;;;5093984;28;20886;-70
2022/03/18 07:15:46;;;;;;;50.00;23.50;;;;;;;;;;5093287;28;20451;-71
2022/03/18 07:18:13;;;;;;;39.93;21.03;;;;;;;;;;5093535;28;20979;-71
2022/03/18 07:20:41;;;;;;;36.50;22.67;;;;;;;;;;5093806;28;20450;-70
2022/03/18 07:23:09;;;;;;;35.80;22.23;;;;;;;;;;5093219;28;20451;-71
2022/03/18 07:25:38;;;;;;;34.77;22.40;;;;;;;;;;5093294;28;20454;-71
2022/03/18 07:28:07;;;;;;;33.83;21.40;;;;;;;;;;5093231;28;20486;-71
2022/03/18 07:30:34;;;;;;;38.03;22.10;;;;;;;;;;5093215;28;20473;-71
2022/03/18 07:33:01;;;;;;;32.80;20.60;;;;;;;;;;5093259;28;20456;-71
2022/03/18 07:35:28;;;;;;;31.87;21.10;;;;;;;;;;5092632;28;20466;-70
2022/03/18 07:37:56;;;;;;;29.73;21.00;;;;;;;;;;5092841;28;20478;-70
2022/03/18 07:40:23;;;;;;;26.83;19.17;;;;;;;;;;5093283;28;20446;-71
2022/03/18 07:42:52;;;;;;;31.43;21.07;;;;;;;;;;5093089;28;20450;-69
2022/03/18 07:45:20;;;;;;;30.73;22.37;;;;;;;;;;5092771;28;20455;-71
2022/03/18 07:47:49;;;;;;;32.70;21.40;;;;;;;;;;5092831;28;21020;-71
2022/03/18 07:50:19;;;;;;;37.73;21.23;;;;;;;;;;5093193;28;21015;-69
2022/03/18 07:52:47;;;;;;;40.33;21.40;;;;;;;;;;5092536;28;20486;-70
2022/03/18 07:55:14;;;;;;;36.40;20.00;;;;;;;;;;5092636;28;20462;-70
2022/03/18 07:57:41;;;;;;;32.70;20.50;;;;;;;;;;5092867;28;20473;-70
2022/03/18 08:00:12;;;;;;;33.83;23.10;;;;;;;;;;5092575;28;20451;-69
2022/03/18 08:02:40;;;;;;;35.50;21.80;;;;;;;;;;5093369;28;20455;-69
2022/03/18 08:05:07;;;;;;;44.87;24.03;;;;;;;;;;5092651;28;20833;-71
2022/03/18 08:07:35;;;;;;;39.27;23.23;;;;;;;;;;5092649;27;20974;-70
2022/03/18 08:10:02;;;;;;;33.07;21.50;;;;;;;;;;5092503;28;20487;-71
2022/03/18 08:12:29;;;;;;;34.20;21.70;;;;;;;;;;5092566;28;20454;-70
2022/03/18 08:14:57;;;;;;;35.57;22.97;;;;;;;;;;5092109;28;20454;-71
2022/03/18 08:17:25;;;;;;;33.03;23.00;;;;;;;;;;5092450;28;20470;-72
2022/03/18 08:19:52;;;;;;;29.77;21.30;;;;;;;;;;5092409;28;20447;-69
2022/03/18 08:22:20;;;;;;;34.43;20.90;;;;;;;;;;5092466;28;20508;-70
2022/03/18 08:24:47;;;;;;;34.93;19.80;;;;;;;;;;5092348;28;20450;-71
2022/03/18 08:27:14;;;;;;;37.10;23.20;;;;;;;;;;5092312;28;20474;-70
2022/03/18 08:29:41;;;;;;;31.60;20.37;;;;;;;;;;5092216;28;20491;-71
2022/03/18 08:32:10;;;;;;;37.23;23.93;;;;;;;;;;5092709;28;20462;-71
2022/03/18 08:34:38;;;;;;;34.83;21.30;;;;;;;;;;5091757;28;20817;-70
2022/03/18 08:37:06;;;;;;;36.87;23.27;;;;;;;;;;5091964;28;20451;-70
2022/03/18 08:39:33;;;;;;;42.27;27.47;;;;;;;;;;5092195;28;20446;-71
2022/03/18 08:42:00;;;;;;;35.13;22.80;;;;;;;;;;5091904;28;20442;-70
2022/03/18 08:44:27;;;;;;;36.10;24.90;;;;;;;;;;5091777;28;20454;-71
2022/03/18 08:46:55;;;;;;;38.43;24.80;;;;;;;;;;5091639;28;20455;-71
2022/03/18 08:49:22;;;;;;;36.40;23.60;;;;;;;;;;5091968;28;20513;-70
2022/03/18 08:51:50;;;;;;;35.73;23.23;;;;;;;;;;5091483;27;20474;-71
2022/03/18 08:54:21;;;;;;;32.80;23.50;;;;;;;;;;5091875;28;20822;-71
2022/03/18 08:56:48;;;;;;;35.60;25.00;;;;;;;;;;5091699;28;20450;-70
2022/03/18 08:59:15;;;;;;;37.20;25.97;;;;;;;;;;5091789;28;20963;-71
2022/03/18 09:01:42;;;;;;;37.23;24.53;;;;;;;;;;5092265;28;20454;-73
2022/03/18 09:04:09;;;;;;;34.43;23.40;;;;;;;;;;5091193;28;21043;-70
2022/03/18 09:06:37;;;;;;;35.00;24.63;;;;;;;;;;5091556;28;20824;-71
2022/03/18 09:09:05;;;;;;;37.43;26.17;;;;;;;;;;5091472;28;20487;-70
2022/03/18 09:11:32;;;;;;;35.70;25.50;;;;;;;;;;5091771;28;20829;-71
2022/03/18 09:13:59;;;;;;;35.27;23.17;;;;;;;;;;5091401;28;20447;-71
2022/03/18 09:16:26;;;;;;;34.13;23.37;;;;;;;;;;5091747;28;20451;-71
2022/03/18 09:18:53;;;;;;;34.10;23.70;;;;;;;;;;5091433;28;20462;-70
2022/03/18 09:21:20;;;;;;;34.73;23.33;;;;;;;;;;5092840;28;20454;-71
2022/03/18 09:23:48;;;;;;;36.37;23.10;;;;;;;;;;5111771;28;20824;-71
2022/03/18 09:26:16;;;;;;;37.47;24.70;;;;;;;;;;5112081;28;20453;-71
2022/03/18 09:28:43;;;;;;;39.87;25.60;;;;;;;;;;5111653;28;20488;-71
2022/03/18 09:31:10;;;;;;;33.50;22.33;;;;;;;;;;5111918;28;20458;-70
2022/03/18 09:33:37;;;;;;;38.10;26.00;;;;;;;;;;5111755;28;20461;-71
2022/03/18 09:36:05;;;;;;;35.40;24.20;;;;;;;;;;5110957;28;20446;-70
2022/03/18 09:38:32;;;;;;;34.20;21.80;;;;;;;;;;5111719;28;20989;-71
2022/03/18 09:40:59;;;;;;;35.13;25.10;;;;;;;;;;5111659;28;20456;-71
2022/03/18 09:43:32;;;;;;;33.70;24.70;;;;;;;;;;5111706;28;20457;-70
2022/03/18 09:46:00;;;;;;;35.00;24.57;;;;;;;;;;5111519;28;20455;-71
2022/03/18 09:48:27;;;;;;;40.90;26.40;;;;;;;;;;5111472;28;20496;-72
2022/03/18 09:50:55;;;;;;;34.37;24.73;;;;;;;;;;5111463;28;20821;-71
2022/03/18 09:53:23;;;;;;;37.97;25.77;;;;;;;;;;5111811;28;20472;-71
2022/03/18 09:55:51;;;;;;;39.20;25.50;;;;;;;;;;5111653;28;20825;-70
2022/03/18 09:58:18;;;;;;;42.80;24.83;;;;;;;;;;5111506;28;20461;-71
2022/03/18 10:00:47;;;;;;;32.97;22.83;;;;;;;;;;5111541;28;20811;-71
2022/03/18 10:03:16;;;;;;;38.07;27.33;;;;;;;;;;5111574;28;20957;-70
2022/03/18 10:05:50;;;;;;;39.50;28.00;;;;;;;;;;5111384;28;20449;-71
2022/03/18 10:08:18;;;;;;;36.83;23.77;;;;;;;;;;5111532;28;20471;-71
2022/03/18 10:10:46;;;;;;;40.80;23.60;;;;;;;;;;5111565;28;20512;-70
2022/03/18 10:13:16;;;;;;;36.10;24.60;;;;;;;;;;5111296;28;20454;-70
2022/03/18 10:15:43;;;;;;;37.30;28.20;;;;;;;;;;5112368;28;20450;-71
2022/03/18 10:18:13;;;;;;;35.13;25.60;;;;;;;;;;5114981;28;20841;-70
2022/03/18 10:20:41;;;;;;;36.97;25.63;;;;;;;;;;5115026;28;20441;-70
2022/03/18 10:23:20;;;;;;;41.80;25.90;;;;;;;;;;5114996;28;20481;-70
2022/03/18 10:25:51;;;;;;;40.07;26.33;;;;;;;;;;5114947;28;20507;-70
2022/03/18 10:28:19;;;;;;;35.20;23.80;;;;;;;;;;5114916;28;20505;-70
2022/03/18 10:30:47;;;;;;;51.20;25.10;;;;;;;;;;5114984;28;20513;-70
2022/03/18 10:33:15;;;;;;;35.00;22.73;;;;;;;;;;5114863;28;20453;-70
2022/03/18 10:38:28;;;;;;;37.00;24.97;;;;;;;;;;5114939;28;20449;-70
2022/03/18 10:40:55;;;;;;;38.27;25.50;;;;;;;;;;5114752;28;20448;-71
2022/03/18 10:43:23;;;;;;;37.70;25.60;;;;;;;;;;5113940;27;20460;-70
2022/03/18 10:46:02;;;;;;;40.53;27.00;;;;;;;;;;5113764;27;20454;-72
2022/03/18 10:48:31;;;;;;;33.70;24.90;;;;;;;;;;5114771;28;20485;-71
2022/03/18 10:51:05;;;;;;;32.00;23.80;;;;;;;;;;5114305;28;20556;-70
2022/03/18 10:53:33;;;;;;;33.90;24.63;;;;;;;;;;5114599;28;20445;-71
2022/03/18 10:56:01;;;;;;;36.47;23.40;;;;;;;;;;5114411;28;21018;-71
2022/03/18 10:58:31;;;;;;;38.57;24.80;;;;;;;;;;5114303;28;20469;-71
2022/03/18 11:00:59;;;;;;;36.93;26.23;;;;;;;;;;5114401;28;20809;-71
2022/03/18 11:03:28;;;;;;;36.37;25.30;;;;;;;;;;5114240;28;20468;-71
2022/03/18 11:05:59;;;;;;;34.80;24.53;;;;;;;;;;5114377;28;20930;-71
2022/03/18 11:08:29;;;;;;;30.03;20.40;;;;;;;;;;5114399;28;20505;-71
2022/03/18 11:11:15;;;;;;;37.07;25.80;;;;;;;;;;5113908;28;20576;-71
2022/03/18 11:13:52;;;;;;;32.30;23.63;;;;;;;;;;5113960;28;20870;-70
2022/03/18 11:16:20;;;;;;;35.37;22.60;;;;;;;;;;5114105;28;20480;-71
2022/03/18 11:18:48;;;;;;;34.90;23.70;;;;;;;;;;5113804;28;20495;-71
2022/03/18 11:21:16;;;;;;;38.33;23.17;;;;;;;;;;5114004;28;20901;-70
2022/03/18 11:23:45;;;;;;;29.57;22.77;;;;;;;;;;5113938;28;20453;-71
2022/03/18 11:26:14;;;;;;;35.60;25.40;;;;;;;;;;5113780;28;20527;-71
2022/03/18 11:28:41;;;;;;;30.63;22.10;;;;;;;;;;5113485;28;20470;-70
2022/03/18 11:31:09;;;;;;;30.80;21.47;;;;;;;;;;5113693;28;20484;-71
2022/03/18 11:33:37;;;;;;;30.90;21.27;;;;;;;;;;5114122;28;20471;-70
2022/03/18 11:36:15;;;;;;;29.33;21.87;;;;;;;;;;5113386;28;20462;-71
2022/03/18 11:38:56;;;;;;;27.83;20.40;;;;;;;;;;5095936;28;20954;-71
2022/03/18 11:41:27;;;;;;;30.40;22.53;;;;;;;;;;5094728;28;20455;-69
2022/03/18 11:43:54;;;;;;;32.13;23.27;;;;;;;;;;5094288;28;20446;-70
2022/03/18 11:46:25;;;;;;;31.33;21.37;;;;;;;;;;5094830;28;21005;-69
2022/03/18 11:48:53;;;;;;;32.23;22.37;;;;;;;;;;5094265;28;20489;-70
2022/03/18 11:51:24;;;;;;;29.10;21.03;;;;;;;;;;5094583;28;20447;-69
2022/03/18 11:53:53;;;;;;;37.60;23.80;;;;;;;;;;5094150;28;20453;-70
2022/03/18 11:56:25;;;;;;;26.87;20.93;;;;;;;;;;5094426;28;20447;-69
2022/03/18 11:58:52;;;;;;;28.87;19.73;;;;;;;;;;5094249;28;20469;-70
2022/03/18 12:01:38;;;;;;;28.87;21.07;;;;;;;;;;5094412;28;20443;-70
2022/03/18 12:04:06;;;;;;;37.57;22.80;;;;;;;;;;5093918;28;20446;-70
2022/03/18 12:06:34;;;;;;;27.63;18.43;;;;;;;;;;5094201;28;20482;-70
2022/03/18 12:09:02;;;;;;;24.20;16.87;;;;;;;;;;5094108;28;20469;-69
2022/03/18 12:11:31;;;;;;;29.33;21.03;;;;;;;;;;5094193;28;20471;-69
2022/03/18 12:13:58;;;;;;;35.67;22.73;;;;;;;;;;5093834;28;20462;-70
2022/03/18 12:16:25;;;;;;;30.50;20.70;;;;;;;;;;5094213;28;20474;-70
2022/03/18 12:18:56;;;;;;;24.03;18.17;;;;;;;;;;5093849;28;20470;-70
2022/03/18 12:21:37;;;;;;;29.63;19.30;;;;;;;;;;5093923;28;20447;-70
2022/03/18 12:24:08;;;;;;;28.47;19.33;;;;;;;;;;5093798;28;20903;-70
2022/03/18 12:26:37;;;;;;;34.67;22.53;;;;;;;;;;5093930;28;20449;-70
2022/03/18 12:29:05;;;;;;;42.23;22.90;;;;;;;;;;5093642;28;20486;-70
2022/03/18 12:31:33;;;;;;;31.40;23.43;;;;;;;;;;5093790;28;20518;-70
2022/03/18 12:34:01;;;;;;;29.90;20.67;;;;;;;;;;5093509;28;20459;-75
2022/03/18 12:36:28;;;;;;;34.77;21.23;;;;;;;;;;5093581;28;20534;-70
2022/03/18 12:39:09;;;;;;;37.03;26.73;;;;;;;;;;5092855;28;20474;-70
2022/03/18 12:41:37;;;;;;;29.97;21.67;;;;;;;;;;5093664;28;20931;-70
2022/03/18 12:44:05;;;;;;;36.30;27.03;;;;;;;;;;5093259;28;20457;-70
2022/03/18 12:46:33;;;;;;;29.00;22.40;;;;;;;;;;5093580;28;20447;-70
2022/03/18 12:49:00;;;;;;;32.10;21.10;;;;;;;;;;5093450;28;20474;-70
2022/03/18 12:51:27;;;;;;;31.10;21.83;;;;;;;;;;5099989;28;20494;-70
2022/03/18 12:53:54;;;;;;;33.60;23.80;;;;;;;;;;5112029;27;20457;-70
2022/03/18 12:56:22;;;;;;;28.47;21.03;;;;;;;;;;5119349;27;20448;-70
2022/03/18 12:58:50;;;;;;;27.90;20.90;;;;;;;;;;5132108;27;20472;-71
2022/03/18 13:01:18;;;;;;;26.23;17.97;;;;;;;;;;5114260;28;20923;-70
2022/03/18 13:03:49;;;;;;;38.57;21.63;;;;;;;;;;5105590;28;20959;-71
2022/03/18 13:06:20;;;;;;;27.70;19.40;;;;;;;;;;5112507;28;20454;-71
2022/03/18 13:08:47;;;;;;;30.83;20.63;;;;;;;;;;5104303;28;20528;-70
2022/03/18 13:11:15;;;;;;;31.13;19.93;;;;;;;;;;5109783;28;20858;-70
2022/03/18 13:13:47;;;;;;;25.87;19.20;;;;;;;;;;5122867;27;20498;-70
2022/03/18 13:16:15;;;;;;;46.93;21.30;;;;;;;;;;5113917;28;21015;-70
2022/03/18 13:18:52;;;;;;;27.90;21.20;;;;;;;;;;5130514;28;20504;-70
2022/03/18 13:21:20;;;;;;;29.63;21.20;;;;;;;;;;5133944;27;20468;-69
2022/03/18 13:23:50;;;;;;;34.63;18.60;;;;;;;;;;5112449;27;20959;-70
2022/03/18 13:26:18;;;;;;;24.50;16.20;;;;;;;;;;5097974;28;20886;-70
2022/03/18 13:28:45;;;;;;;31.07;20.90;;;;;;;;;;5092910;28;20850;-71
2022/03/18 13:33:59;;;;;;;31.97;19.20;;;;;;;;;;5093213;28;20394;-70
2022/03/18 13:36:29;;;;;;;24.70;18.33;;;;;;;;;;5093342;28;20447;-70
2022/03/18 13:38:57;;;;;;;25.10;17.73;;;;;;;;;;5092982;28;20501;-69
2022/03/18 13:41:25;;;;;;;28.60;19.10;;;;;;;;;;5092721;28;20438;-71
2022/03/18 13:43:56;;;;;;;21.90;13.97;;;;;;;;;;5093134;28;20492;-70
2022/03/18 13:46:27;;;;;;;29.70;16.67;;;;;;;;;;5093105;28;20451;-70
2022/03/18 13:48:57;;;;;;;24.47;15.13;;;;;;;;;;5091465;28;21008;-70
2022/03/18 13:51:33;;;;;;;28.47;18.83;;;;;;;;;;5093950;28;20475;-69
2022/03/18 13:54:07;;;;;;;22.93;13.50;;;;;;;;;;5096455;28;20454;-69
2022/03/18 13:56:34;;;;;;;34.27;19.30;;;;;;;;;;5096668;28;20824;-69
2022/03/18 13:59:10;;;;;;;23.40;16.27;;;;;;;;;;5096601;28;20470;-69
2022/03/18 14:01:37;;;;;;;24.73;17.20;;;;;;;;;;5090209;28;20879;-70
2022/03/18 14:04:04;;;;;;;28.27;18.33;;;;;;;;;;5095051;28;20482;-70
2022/03/18 14:06:50;;;;;;;28.93;19.50;;;;;;;;;;5095382;28;20446;-71
2022/03/18 14:09:17;;;;;;;28.60;18.67;;;;;;;;;;5095070;28;20465;-71
2022/03/18 14:14:29;;;;;;;26.23;16.77;;;;;;;;;;5104244;28;20464;-70
2022/03/18 14:17:07;;;;;;;29.63;17.20;;;;;;;;;;5103329;28;20445;-71
2022/03/18 14:19:49;;;;;;;23.33;16.30;;;;;;;;;;5105402;28;20443;-70
2022/03/18 14:22:34;;;;;;;24.63;16.07;;;;;;;;;;5093365;28;20485;-70
2022/03/18 14:25:03;;;;;;;25.70;15.33;;;;;;;;;;5093499;28;20947;-70
2022/03/18 14:27:30;;;;;;;24.27;15.00;;;;;;;;;;5093897;28;20469;-70
2022/03/18 14:29:57;;;;;;;18.13;12.30;;;;;;;;;;5094466;28;20516;-70
2022/03/18 14:32:24;;;;;;;21.47;14.30;;;;;;;;;;5094917;28;20466;-70
2022/03/18 14:34:53;;;;;;;22.93;15.10;;;;;;;;;;5094390;28;20446;-71
2022/03/18 14:37:20;;;;;;;22.03;14.40;;;;;;;;;;5094575;28;20474;-70
2022/03/18 14:39:49;;;;;;;25.10;16.33;;;;;;;;;;5094045;28;20458;-72
2022/03/18 14:42:16;;;;;;;24.70;17.20;;;;;;;;;;5094438;28;20450;-70
2022/03/18 14:44:43;;;;;;;18.40;12.67;;;;;;;;;;5094135;28;20447;-70
2022/03/18 14:47:10;;;;;;;30.97;16.27;;;;;;;;;;5094111;28;20470;-70